sensor_id;sensor_type;location;lat;lon;timestamp;temperature;humidity
31046;DHT22;17711;54.018;9.300;2023-04-08T00:00:14;8.00;99.90
31046;DHT22;17711;54.018;9.300;2023-04-08T00:02:44;8.00;99.90
31046;DHT22;17711;54.018;9.300;2023-04-08T00:05:16;8.00;99.90
31046;DHT22;17711;54.018;9.300;2023-04-08T00:07:45;7.90;99.90
31046;DHT22;17711;54.018;9.300;2023-04-08T00:10:15;7.90;99.90
31046;DHT22;17711;54.018;9.300;2023-04-08T00:12:44;7.90;99.90
31046;DHT22;17711;54.018;9.300;2023-04-08T00:15:12;7.90;99.90
31046;DHT22;17711;54.018;9.300;2023-04-08T00:17:41;8.00;99.90
31046;DHT22;17711;54.018;9.300;2023-04-08T00:20:10;8.10;99.90
31046;DHT22;17711;54.018;9.300;2023-04-08T00:22:38;8.10;99.90
31046;DHT22;17711;54.018;9.300;2023-04-08T00:25:08;8.10;99.90
31046;DHT22;17711;54.018;9.300;2023-04-08T00:27:38;8.00;99.90
31046;DHT22;17711;54.018;9.300;2023-04-08T00:30:07;8.10;99.90
31046;DHT22;17711;54.018;9.300;2023-04-08T00:32:36;8.10;99.90
31046;DHT22;17711;54.018;9.300;2023-04-08T00:35:05;8.20;99.90
31046;DHT22;17711;54.018;9.300;2023-04-08T00:37:33;8.20;99.90
31046;DHT22;17711;54.018;9.300;2023-04-08T00:40:02;8.30;99.90
31046;DHT22;17711;54.018;9.300;2023-04-08T00:42:30;8.20;99.90
31046;DHT22;17711;54.018;9.300;2023-04-08T00:45:00;8.30;99.90
31046;DHT22;17711;54.018;9.300;2023-04-08T00:47:30;8.30;99.90
31046;DHT22;17711;54.018;9.300;2023-04-08T00:49:58;8.20;99.90
31046;DHT22;17711;54.018;9.300;2023-04-08T00:52:27;8.20;99.90
31046;DHT22;17711;54.018;9.300;2023-04-08T00:54:55;8.20;99.90
31046;DHT22;17711;54.018;9.300;2023-04-08T00:57:24;8.20;99.90
31046;DHT22;17711;54.018;9.300;2023-04-08T00:59:53;8.20;99.90
31046;DHT22;17711;54.018;9.300;2023-04-08T01:02:28;8.30;99.90
31046;DHT22;17711;54.018;9.300;2023-04-08T01:05:02;8.20;99.90
31046;DHT22;17711;54.018;9.300;2023-04-08T01:07:33;8.20;99.90
31046;DHT22;17711;54.018;9.300;2023-04-08T01:10:05;8.10;99.90
31046;DHT22;17711;54.018;9.300;2023-04-08T01:12:40;8.10;99.90
31046;DHT22;17711;54.018;9.300;2023-04-08T01:15:11;8.10;99.90
31046;DHT22;17711;54.018;9.300;2023-04-08T01:17:42;8.10;99.90
31046;DHT22;17711;54.018;9.300;2023-04-08T01:20:12;8.10;99.90
31046;DHT22;17711;54.018;9.300;2023-04-08T01:22:57;8.10;99.90
31046;DHT22;17711;54.018;9.300;2023-04-08T01:25:31;8.10;99.90
31046;DHT22;17711;54.018;9.300;2023-04-08T01:28:04;8.10;99.90
31046;DHT22;17711;54.018;9.300;2023-04-08T01:30:33;8.10;99.90
31046;DHT22;17711;54.018;9.300;2023-04-08T01:33:03;8.10;99.90
31046;DHT22;17711;54.018;9.300;2023-04-08T01:35:33;8.10;99.90
31046;DHT22;17711;54.018;9.300;2023-04-08T01:38:05;8.10;99.90
31046;DHT22;17711;54.018;9.300;2023-04-08T01:40:36;8.10;99.90
31046;DHT22;17711;54.018;9.300;2023-04-08T01:43:09;8.20;99.90
31046;DHT22;17711;54.018;9.300;2023-04-08T01:45:38;8.20;99.90
31046;DHT22;17711;54.018;9.300;2023-04-08T01:48:07;8.10;99.90
31046;DHT22;17711;54.018;9.300;2023-04-08T01:50:36;8.10;99.90
31046;DHT22;17711;54.018;9.300;2023-04-08T01:53:07;8.10;99.90
31046;DHT22;17711;54.018;9.300;2023-04-08T01:55:37;8.10;99.90
31046;DHT22;17711;54.018;9.300;2023-04-08T01:58:12;8.10;99.90
31046;DHT22;17711;54.018;9.300;2023-04-08T02:00:46;8.10;99.90
31046;DHT22;17711;54.018;9.300;2023-04-08T02:03:17;8.10;99.90
31046;DHT22;17711;54.018;9.300;2023-04-08T02:05:49;8.10;99.90
31046;DHT22;17711;54.018;9.300;2023-04-08T02:08:18;8.10;99.90
31046;DHT22;17711;54.018;9.300;2023-04-08T02:10:47;8.10;99.90
31046;DHT22;17711;54.018;9.300;2023-04-08T02:13:17;8.10;99.90
31046;DHT22;17711;54.018;9.300;2023-04-08T02:15:51;8.10;99.90
31046;DHT22;17711;54.018;9.300;2023-04-08T02:18:25;8.10;99.90
31046;DHT22;17711;54.018;9.300;2023-04-08T02:20:58;8.10;99.90
31046;DHT22;17711;54.018;9.300;2023-04-08T02:23:32;8.10;99.90
31046;DHT22;17711;54.018;9.300;2023-04-08T02:26:04;8.10;99.90
31046;DHT22;17711;54.018;9.300;2023-04-08T02:28:36;8.10;99.90
31046;DHT22;17711;54.018;9.300;2023-04-08T02:31:05;8.10;99.90
31046;DHT22;17711;54.018;9.300;2023-04-08T02:33:37;8.10;99.90
31046;DHT22;17711;54.018;9.300;2023-04-08T02:36:07;8.10;99.90
31046;DHT22;17711;54.018;9.300;2023-04-08T02:38:36;8.10;99.90
31046;DHT22;17711;54.018;9.300;2023-04-08T02:41:04;8.20;99.90
31046;DHT22;17711;54.018;9.300;2023-04-08T02:43:34;8.10;99.90
31046;DHT22;17711;54.018;9.300;2023-04-08T02:46:03;8.20;99.90
31046;DHT22;17711;54.018;9.300;2023-04-08T02:48:32;8.10;99.90
31046;DHT22;17711;54.018;9.300;2023-04-08T02:51:01;8.10;99.90
31046;DHT22;17711;54.018;9.300;2023-04-08T02:53:29;8.20;99.90
31046;DHT22;17711;54.018;9.300;2023-04-08T02:55:58;8.20;99.90
31046;DHT22;17711;54.018;9.300;2023-04-08T02:58:26;8.20;99.90
31046;DHT22;17711;54.018;9.300;2023-04-08T03:00:56;8.20;99.90
31046;DHT22;17711;54.018;9.300;2023-04-08T03:03:25;8.20;99.90
31046;DHT22;17711;54.018;9.300;2023-04-08T03:05:56;8.20;99.90
31046;DHT22;17711;54.018;9.300;2023-04-08T03:08:25;8.30;99.90
31046;DHT22;17711;54.018;9.300;2023-04-08T03:10:54;8.30;99.90
31046;DHT22;17711;54.018;9.300;2023-04-08T03:13:22;8.30;99.90
31046;DHT22;17711;54.018;9.300;2023-04-08T03:15:51;8.30;99.90
31046;DHT22;17711;54.018;9.300;2023-04-08T03:18:21;8.20;99.90
31046;DHT22;17711;54.018;9.300;2023-04-08T03:20:50;8.20;99.90
31046;DHT22;17711;54.018;9.300;2023-04-08T03:23:18;8.30;99.90
31046;DHT22;17711;54.018;9.300;2023-04-08T03:25:47;8.30;99.90
31046;DHT22;17711;54.018;9.300;2023-04-08T03:28:15;8.30;99.90
31046;DHT22;17711;54.018;9.300;2023-04-08T03:30:44;8.20;99.90
31046;DHT22;17711;54.018;9.300;2023-04-08T03:33:12;8.20;99.90
31046;DHT22;17711;54.018;9.300;2023-04-08T03:35:43;8.30;99.90
31046;DHT22;17711;54.018;9.300;2023-04-08T03:38:11;8.30;99.90
31046;DHT22;17711;54.018;9.300;2023-04-08T03:40:40;8.20;99.90
31046;DHT22;17711;54.018;9.300;2023-04-08T03:43:08;8.20;99.90
31046;DHT22;17711;54.018;9.300;2023-04-08T03:45:38;8.20;99.90
31046;DHT22;17711;54.018;9.300;2023-04-08T03:48:07;8.30;99.90
31046;DHT22;17711;54.018;9.300;2023-04-08T03:50:35;8.20;99.90
31046;DHT22;17711;54.018;9.300;2023-04-08T03:53:05;8.30;99.90
31046;DHT22;17711;54.018;9.300;2023-04-08T03:55:37;8.30;99.90
31046;DHT22;17711;54.018;9.300;2023-04-08T03:58:05;8.30;99.90
31046;DHT22;17711;54.018;9.300;2023-04-08T04:00:35;8.20;99.90
31046;DHT22;17711;54.018;9.300;2023-04-08T04:03:04;8.20;99.90
31046;DHT22;17711;54.018;9.300;2023-04-08T04:05:32;8.20;99.90
31046;DHT22;17711;54.018;9.300;2023-04-08T04:08:01;8.20;99.90
31046;DHT22;17711;54.018;9.300;2023-04-08T04:10:31;8.20;99.90
31046;DHT22;17711;54.018;9.300;2023-04-08T04:12:59;8.10;99.90
31046;DHT22;17711;54.018;9.300;2023-04-08T04:15:28;8.10;99.90
31046;DHT22;17711;54.018;9.300;2023-04-08T04:17:56;8.20;99.90
31046;DHT22;17711;54.018;9.300;2023-04-08T04:20:25;8.20;99.90
31046;DHT22;17711;54.018;9.300;2023-04-08T04:22:56;8.20;99.90
31046;DHT22;17711;54.018;9.300;2023-04-08T04:25:24;8.20;99.90
31046;DHT22;17711;54.018;9.300;2023-04-08T04:27:54;8.10;99.90
31046;DHT22;17711;54.018;9.300;2023-04-08T04:30:23;8.20;99.90
31046;DHT22;17711;54.018;9.300;2023-04-08T04:32:52;8.20;99.90
31046;DHT22;17711;54.018;9.300;2023-04-08T04:35:20;8.20;99.90
31046;DHT22;17711;54.018;9.300;2023-04-08T04:37:49;8.20;99.90
31046;DHT22;17711;54.018;9.300;2023-04-08T04:40:18;8.10;99.90
31046;DHT22;17711;54.018;9.300;2023-04-08T04:42:47;8.10;99.90
31046;DHT22;17711;54.018;9.300;2023-04-08T04:45:17;8.10;99.90
31046;DHT22;17711;54.018;9.300;2023-04-08T04:47:45;8.10;99.90
31046;DHT22;17711;54.018;9.300;2023-04-08T04:50:15;8.10;99.90
31046;DHT22;17711;54.018;9.300;2023-04-08T04:52:43;8.20;99.90
31046;DHT22;17711;54.018;9.300;2023-04-08T04:55:12;8.10;99.90
31046;DHT22;17711;54.018;9.300;2023-04-08T04:57:41;8.10;99.90
31046;DHT22;17711;54.018;9.300;2023-04-08T05:00:11;8.10;99.90
31046;DHT22;17711;54.018;9.300;2023-04-08T05:02:43;8.10;99.90
31046;DHT22;17711;54.018;9.300;2023-04-08T05:05:12;8.10;99.90
31046;DHT22;17711;54.018;9.300;2023-04-08T05:07:41;8.10;99.90
31046;DHT22;17711;54.018;9.300;2023-04-08T05:10:10;8.20;99.90
31046;DHT22;17711;54.018;9.300;2023-04-08T05:12:39;8.20;99.90
31046;DHT22;17711;54.018;9.300;2023-04-08T05:15:07;8.10;99.90
31046;DHT22;17711;54.018;9.300;2023-04-08T05:17:36;8.10;99.90
31046;DHT22;17711;54.018;9.300;2023-04-08T05:20:07;8.10;99.90
31046;DHT22;17711;54.018;9.300;2023-04-08T05:22:36;8.10;99.90
31046;DHT22;17711;54.018;9.300;2023-04-08T05:25:05;8.10;99.90
31046;DHT22;17711;54.018;9.300;2023-04-08T05:27:34;8.00;99.90
31046;DHT22;17711;54.018;9.300;2023-04-08T05:30:03;8.10;99.90
31046;DHT22;17711;54.018;9.300;2023-04-08T05:32:32;8.10;99.90
31046;DHT22;17711;54.018;9.300;2023-04-08T05:35:01;8.00;99.90
31046;DHT22;17711;54.018;9.300;2023-04-08T05:37:31;8.00;99.90
31046;DHT22;17711;54.018;9.300;2023-04-08T05:40:00;8.10;99.90
31046;DHT22;17711;54.018;9.300;2023-04-08T05:42:28;8.10;99.90
31046;DHT22;17711;54.018;9.300;2023-04-08T05:44:58;8.10;99.90
31046;DHT22;17711;54.018;9.300;2023-04-08T05:47:27;8.20;99.90
31046;DHT22;17711;54.018;9.300;2023-04-08T05:49:55;8.30;99.90
31046;DHT22;17711;54.018;9.300;2023-04-08T05:52:24;8.30;99.90
31046;DHT22;17711;54.018;9.300;2023-04-08T05:54:54;8.30;99.90
31046;DHT22;17711;54.018;9.300;2023-04-08T05:57:22;8.30;99.90
31046;DHT22;17711;54.018;9.300;2023-04-08T05:59:50;8.30;99.90
31046;DHT22;17711;54.018;9.300;2023-04-08T06:02:20;8.20;99.90
31046;DHT22;17711;54.018;9.300;2023-04-08T06:04:48;8.20;99.90
31046;DHT22;17711;54.018;9.300;2023-04-08T06:07:17;8.20;99.90
31046;DHT22;17711;54.018;9.300;2023-04-08T06:09:46;8.10;99.90
31046;DHT22;17711;54.018;9.300;2023-04-08T06:12:16;8.10;99.90
31046;DHT22;17711;54.018;9.300;2023-04-08T06:14:45;8.00;99.90
31046;DHT22;17711;54.018;9.300;2023-04-08T06:17:14;8.00;99.90
31046;DHT22;17711;54.018;9.300;2023-04-08T06:19:42;8.00;99.90
31046;DHT22;17711;54.018;9.300;2023-04-08T06:22:11;7.90;99.90
31046;DHT22;17711;54.018;9.300;2023-04-08T06:24:40;7.90;99.90
31046;DHT22;17711;54.018;9.300;2023-04-08T06:27:08;7.80;99.90
31046;DHT22;17711;54.018;9.300;2023-04-08T06:29:38;7.80;99.90
31046;DHT22;17711;54.018;9.300;2023-04-08T06:32:09;7.80;99.90
31046;DHT22;17711;54.018;9.300;2023-04-08T06:34:38;7.80;99.90
31046;DHT22;17711;54.018;9.300;2023-04-08T06:37:07;7.80;99.90
31046;DHT22;17711;54.018;9.300;2023-04-08T06:39:35;7.80;99.90
31046;DHT22;17711;54.018;9.300;2023-04-08T06:42:04;7.80;99.90
31046;DHT22;17711;54.018;9.300;2023-04-08T06:44:32;7.80;99.90
31046;DHT22;17711;54.018;9.300;2023-04-08T06:47:02;7.90;99.90
31046;DHT22;17711;54.018;9.300;2023-04-08T06:49:31;7.90;99.90
31046;DHT22;17711;54.018;9.300;2023-04-08T06:51:59;7.90;99.90
31046;DHT22;17711;54.018;9.300;2023-04-08T06:54:28;7.90;99.90
31046;DHT22;17711;54.018;9.300;2023-04-08T06:56:56;8.00;99.90
31046;DHT22;17711;54.018;9.300;2023-04-08T06:59:25;8.00;99.90
31046;DHT22;17711;54.018;9.300;2023-04-08T07:01:53;8.10;99.90
31046;DHT22;17711;54.018;9.300;2023-04-08T07:04:24;8.10;99.90
31046;DHT22;17711;54.018;9.300;2023-04-08T07:06:52;8.20;99.90
31046;DHT22;17711;54.018;9.300;2023-04-08T07:09:21;8.20;99.90
31046;DHT22;17711;54.018;9.300;2023-04-08T07:11:49;8.30;99.90
31046;DHT22;17711;54.018;9.300;2023-04-08T07:14:18;8.40;99.90
31046;DHT22;17711;54.018;9.300;2023-04-08T07:16:47;8.50;99.90
31046;DHT22;17711;54.018;9.300;2023-04-08T07:19:15;8.60;99.90
31046;DHT22;17711;54.018;9.300;2023-04-08T07:21:45;8.70;99.90
31046;DHT22;17711;54.018;9.300;2023-04-08T07:24:14;8.80;99.90
31046;DHT22;17711;54.018;9.300;2023-04-08T07:26:43;8.90;99.90
31046;DHT22;17711;54.018;9.300;2023-04-08T07:29:12;9.00;99.90
31046;DHT22;17711;54.018;9.300;2023-04-08T07:31:42;9.10;99.90
31046;DHT22;17711;54.018;9.300;2023-04-08T07:34:11;9.10;99.90
31046;DHT22;17711;54.018;9.300;2023-04-08T07:36:40;9.10;99.90
31046;DHT22;17711;54.018;9.300;2023-04-08T07:39:10;9.10;99.90
31046;DHT22;17711;54.018;9.300;2023-04-08T07:41:38;9.10;99.90
31046;DHT22;17711;54.018;9.300;2023-04-08T07:44:07;9.00;99.90
31046;DHT22;17711;54.018;9.300;2023-04-08T07:46:36;9.00;99.90
31046;DHT22;17711;54.018;9.300;2023-04-08T07:49:05;9.10;99.90
31046;DHT22;17711;54.018;9.300;2023-04-08T07:51:34;9.30;99.90
31046;DHT22;17711;54.018;9.300;2023-04-08T07:54:02;9.30;99.90
31046;DHT22;17711;54.018;9.300;2023-04-08T07:56:33;9.40;99.90
31046;DHT22;17711;54.018;9.300;2023-04-08T07:59:01;9.50;99.90
31046;DHT22;17711;54.018;9.300;2023-04-08T08:01:30;9.60;99.90
31046;DHT22;17711;54.018;9.300;2023-04-08T08:04:01;9.60;99.90
31046;DHT22;17711;54.018;9.300;2023-04-08T08:06:30;9.70;99.90
31046;DHT22;17711;54.018;9.300;2023-04-08T08:08:59;9.80;99.90
31046;DHT22;17711;54.018;9.300;2023-04-08T08:11:28;9.90;99.90
31046;DHT22;17711;54.018;9.300;2023-04-08T08:13:58;10.00;99.90
31046;DHT22;17711;54.018;9.300;2023-04-08T08:16:27;10.20;99.90
31046;DHT22;17711;54.018;9.300;2023-04-08T08:18:56;10.20;99.90
31046;DHT22;17711;54.018;9.300;2023-04-08T08:21:25;10.20;99.90
31046;DHT22;17711;54.018;9.300;2023-04-08T08:23:54;10.30;99.90
31046;DHT22;17711;54.018;9.300;2023-04-08T08:26:22;10.40;99.90
31046;DHT22;17711;54.018;9.300;2023-04-08T08:28:51;10.50;99.90
31046;DHT22;17711;54.018;9.300;2023-04-08T08:31:21;10.50;99.90
31046;DHT22;17711;54.018;9.300;2023-04-08T08:33:50;10.50;99.90
31046;DHT22;17711;54.018;9.300;2023-04-08T08:36:18;10.50;99.90
31046;DHT22;17711;54.018;9.300;2023-04-08T08:38:47;10.60;99.90
31046;DHT22;17711;54.018;9.300;2023-04-08T08:41:17;10.60;99.90
31046;DHT22;17711;54.018;9.300;2023-04-08T08:43:46;10.70;99.90
31046;DHT22;17711;54.018;9.300;2023-04-08T08:46:16;10.80;99.90
31046;DHT22;17711;54.018;9.300;2023-04-08T08:48:46;10.90;99.90
31046;DHT22;17711;54.018;9.300;2023-04-08T08:51:15;11.10;99.90
31046;DHT22;17711;54.018;9.300;2023-04-08T08:53:44;11.00;99.90
31046;DHT22;17711;54.018;9.300;2023-04-08T08:56:12;11.10;99.90
31046;DHT22;17711;54.018;9.300;2023-04-08T08:58:45;11.20;99.90
31046;DHT22;17711;54.018;9.300;2023-04-08T09:01:34;11.40;99.90
31046;DHT22;17711;54.018;9.300;2023-04-08T09:04:10;11.60;99.90
31046;DHT22;17711;54.018;9.300;2023-04-08T09:06:40;11.60;99.90
31046;DHT22;17711;54.018;9.300;2023-04-08T09:09:09;11.60;99.90
31046;DHT22;17711;54.018;9.300;2023-04-08T09:11:39;11.90;99.90
31046;DHT22;17711;54.018;9.300;2023-04-08T09:14:18;12.20;99.90
31046;DHT22;17711;54.018;9.300;2023-04-08T09:16:47;12.60;99.90
31046;DHT22;17711;54.018;9.300;2023-04-08T09:19:18;13.40;99.90
31046;DHT22;17711;54.018;9.300;2023-04-08T09:22:04;13.80;99.90
31046;DHT22;17711;54.018;9.300;2023-04-08T09:24:34;13.60;99.90
31046;DHT22;17711;54.018;9.300;2023-04-08T09:27:04;13.30;99.90
31046;DHT22;17711;54.018;9.300;2023-04-08T09:29:32;13.00;99.90
31046;DHT22;17711;54.018;9.300;2023-04-08T09:32:05;13.00;99.90
31046;DHT22;17711;54.018;9.300;2023-04-08T09:34:35;13.00;99.90
31046;DHT22;17711;54.018;9.300;2023-04-08T09:37:03;12.90;99.90
31046;DHT22;17711;54.018;9.300;2023-04-08T09:39:33;12.90;99.90
31046;DHT22;17711;54.018;9.300;2023-04-08T09:42:04;13.10;99.90
31046;DHT22;17711;54.018;9.300;2023-04-08T09:44:36;13.30;99.90
31046;DHT22;17711;54.018;9.300;2023-04-08T09:47:09;13.30;99.90
31046;DHT22;17711;54.018;9.300;2023-04-08T09:49:46;13.30;99.90
31046;DHT22;17711;54.018;9.300;2023-04-08T09:52:20;13.40;99.90
31046;DHT22;17711;54.018;9.300;2023-04-08T09:54:54;13.30;99.90
31046;DHT22;17711;54.018;9.300;2023-04-08T09:57:30;13.30;99.90
31046;DHT22;17711;54.018;9.300;2023-04-08T10:00:03;13.40;99.90
31046;DHT22;17711;54.018;9.300;2023-04-08T10:02:39;13.50;99.90
31046;DHT22;17711;54.018;9.300;2023-04-08T10:05:12;13.50;99.90
31046;DHT22;17711;54.018;9.300;2023-04-08T10:07:41;13.60;99.90
31046;DHT22;17711;54.018;9.300;2023-04-08T10:10:10;13.90;99.90
31046;DHT22;17711;54.018;9.300;2023-04-08T10:12:39;13.80;99.90
31046;DHT22;17711;54.018;9.300;2023-04-08T10:15:24;14.10;99.90
31046;DHT22;17711;54.018;9.300;2023-04-08T10:17:54;15.30;99.90
31046;DHT22;17711;54.018;9.300;2023-04-08T10:20:43;15.80;99.90
31046;DHT22;17711;54.018;9.300;2023-04-08T10:23:13;15.70;99.90
31046;DHT22;17711;54.018;9.300;2023-04-08T10:25:42;15.50;99.90
31046;DHT22;17711;54.018;9.300;2023-04-08T10:28:24;15.10;99.90
31046;DHT22;17711;54.018;9.300;2023-04-08T10:30:54;15.00;99.90
31046;DHT22;17711;54.018;9.300;2023-04-08T10:33:30;15.40;99.90
31046;DHT22;17711;54.018;9.300;2023-04-08T10:36:07;15.50;99.90
31046;DHT22;17711;54.018;9.300;2023-04-08T10:38:38;15.60;99.90
31046;DHT22;17711;54.018;9.300;2023-04-08T10:41:09;16.70;99.90
31046;DHT22;17711;54.018;9.300;2023-04-08T10:43:40;17.70;99.90
31046;DHT22;17711;54.018;9.300;2023-04-08T10:46:09;18.00;99.90
31046;DHT22;17711;54.018;9.300;2023-04-08T10:48:38;19.90;99.90
31046;DHT22;17711;54.018;9.300;2023-04-08T10:51:09;21.80;99.90
31046;DHT22;17711;54.018;9.300;2023-04-08T10:53:38;22.20;76.30
31046;DHT22;17711;54.018;9.300;2023-04-08T10:56:08;23.60;63.30
31046;DHT22;17711;54.018;9.300;2023-04-08T10:58:47;24.40;56.50
31046;DHT22;17711;54.018;9.300;2023-04-08T11:01:16;25.20;54.30
31046;DHT22;17711;54.018;9.300;2023-04-08T11:03:44;24.60;49.00
31046;DHT22;17711;54.018;9.300;2023-04-08T11:06:15;23.10;50.50
31046;DHT22;17711;54.018;9.300;2023-04-08T11:08:45;21.90;63.10
31046;DHT22;17711;54.018;9.300;2023-04-08T11:11:14;21.10;72.50
31046;DHT22;17711;54.018;9.300;2023-04-08T11:13:45;20.40;84.50
31046;DHT22;17711;54.018;9.300;2023-04-08T11:16:20;19.70;98.40
31046;DHT22;17711;54.018;9.300;2023-04-08T11:18:50;19.50;99.90
31046;DHT22;17711;54.018;9.300;2023-04-08T11:21:22;21.20;99.90
31046;DHT22;17711;54.018;9.300;2023-04-08T11:23:51;23.10;86.10
31046;DHT22;17711;54.018;9.300;2023-04-08T11:26:21;24.10;55.70
31046;DHT22;17711;54.018;9.300;2023-04-08T11:28:50;25.10;52.40
31046;DHT22;17711;54.018;9.300;2023-04-08T11:31:20;26.50;50.00
31046;DHT22;17711;54.018;9.300;2023-04-08T11:33:53;27.20;45.80
31046;DHT22;17711;54.018;9.300;2023-04-08T11:36:23;26.70;41.30
31046;DHT22;17711;54.018;9.300;2023-04-08T11:38:53;25.80;42.10
31046;DHT22;17711;54.018;9.300;2023-04-08T11:41:22;25.80;47.90
31046;DHT22;17711;54.018;9.300;2023-04-08T11:43:55;26.60;44.80
31046;DHT22;17711;54.018;9.300;2023-04-08T11:46:24;27.00;40.60
31046;DHT22;17711;54.018;9.300;2023-04-08T11:48:57;26.60;40.20
31046;DHT22;17711;54.018;9.300;2023-04-08T11:51:27;27.00;41.20
31046;DHT22;17711;54.018;9.300;2023-04-08T11:53:56;27.30;41.70
31046;DHT22;17711;54.018;9.300;2023-04-08T11:56:25;27.50;45.30
31046;DHT22;17711;54.018;9.300;2023-04-08T11:58:55;27.90;39.50
31046;DHT22;17711;54.018;9.300;2023-04-08T12:01:23;27.80;38.90
31046;DHT22;17711;54.018;9.300;2023-04-08T12:03:55;28.20;42.10
31046;DHT22;17711;54.018;9.300;2023-04-08T12:06:26;28.90;39.70
31046;DHT22;17711;54.018;9.300;2023-04-08T12:08:55;29.30;37.50
31046;DHT22;17711;54.018;9.300;2023-04-08T12:11:24;29.70;33.80
31046;DHT22;17711;54.018;9.300;2023-04-08T12:13:54;29.10;35.10
31046;DHT22;17711;54.018;9.300;2023-04-08T12:16:23;28.70;34.50
31046;DHT22;17711;54.018;9.300;2023-04-08T12:18:52;27.90;37.70
31046;DHT22;17711;54.018;9.300;2023-04-08T12:21:20;27.40;37.80
31046;DHT22;17711;54.018;9.300;2023-04-08T12:23:50;27.40;38.80
31046;DHT22;17711;54.018;9.300;2023-04-08T12:26:19;27.50;38.90
31046;DHT22;17711;54.018;9.300;2023-04-08T12:28:48;27.20;38.90
31046;DHT22;17711;54.018;9.300;2023-04-08T12:31:17;27.10;38.50
31046;DHT22;17711;54.018;9.300;2023-04-08T12:33:45;27.20;39.30
31046;DHT22;17711;54.018;9.300;2023-04-08T12:36:15;27.60;44.30
31046;DHT22;17711;54.018;9.300;2023-04-08T12:38:43;28.10;36.60
31046;DHT22;17711;54.018;9.300;2023-04-08T12:41:13;28.50;40.00
31046;DHT22;17711;54.018;9.300;2023-04-08T12:43:42;29.00;39.00
31046;DHT22;17711;54.018;9.300;2023-04-08T12:46:10;29.20;36.40
31046;DHT22;17711;54.018;9.300;2023-04-08T12:48:40;28.60;36.20
31046;DHT22;17711;54.018;9.300;2023-04-08T12:51:11;28.10;38.60
31046;DHT22;17711;54.018;9.300;2023-04-08T12:53:40;27.30;39.50
31046;DHT22;17711;54.018;9.300;2023-04-08T12:56:08;27.10;39.20
31046;DHT22;17711;54.018;9.300;2023-04-08T12:58:38;26.50;41.40
31046;DHT22;17711;54.018;9.300;2023-04-08T13:01:07;26.00;41.20
31046;DHT22;17711;54.018;9.300;2023-04-08T13:03:36;26.10;42.80
31046;DHT22;17711;54.018;9.300;2023-04-08T13:06:04;26.20;40.80
31046;DHT22;17711;54.018;9.300;2023-04-08T13:08:33;25.90;42.30
31046;DHT22;17711;54.018;9.300;2023-04-08T13:11:02;25.30;41.10
31046;DHT22;17711;54.018;9.300;2023-04-08T13:13:30;24.80;43.80
31046;DHT22;17711;54.018;9.300;2023-04-08T13:16:00;25.00;45.10
31046;DHT22;17711;54.018;9.300;2023-04-08T13:18:30;24.80;45.90
31046;DHT22;17711;54.018;9.300;2023-04-08T13:20:58;24.50;45.50
31046;DHT22;17711;54.018;9.300;2023-04-08T13:23:27;24.70;48.10
31046;DHT22;17711;54.018;9.300;2023-04-08T13:25:55;24.80;46.20
31046;DHT22;17711;54.018;9.300;2023-04-08T13:28:24;24.70;49.00
31046;DHT22;17711;54.018;9.300;2023-04-08T13:30:53;24.60;49.20
31046;DHT22;17711;54.018;9.300;2023-04-08T13:33:23;24.40;49.60
31046;DHT22;17711;54.018;9.300;2023-04-08T13:35:51;24.40;49.40
31046;DHT22;17711;54.018;9.300;2023-04-08T13:38:20;24.20;50.70
31046;DHT22;17711;54.018;9.300;2023-04-08T13:40:49;24.20;48.50
31046;DHT22;17711;54.018;9.300;2023-04-08T13:43:17;24.30;48.70
31046;DHT22;17711;54.018;9.300;2023-04-08T13:45:47;24.00;49.20
31046;DHT22;17711;54.018;9.300;2023-04-08T13:48:16;23.90;52.30
31046;DHT22;17711;54.018;9.300;2023-04-08T13:50:46;23.90;52.00
31046;DHT22;17711;54.018;9.300;2023-04-08T13:53:15;23.80;53.70
31046;DHT22;17711;54.018;9.300;2023-04-08T13:55:44;23.70;56.80
31046;DHT22;17711;54.018;9.300;2023-04-08T13:58:12;23.80;52.00
31046;DHT22;17711;54.018;9.300;2023-04-08T14:00:49;23.10;51.50
31046;DHT22;17711;54.018;9.300;2023-04-08T14:03:18;22.40;59.20
31046;DHT22;17711;54.018;9.300;2023-04-08T14:05:48;22.40;81.40
31046;DHT22;17711;54.018;9.300;2023-04-08T14:08:18;22.30;71.40
31046;DHT22;17711;54.018;9.300;2023-04-08T14:10:52;22.30;64.80
31046;DHT22;17711;54.018;9.300;2023-04-08T14:13:20;22.30;75.70
31046;DHT22;17711;54.018;9.300;2023-04-08T14:15:49;21.90;68.10
31046;DHT22;17711;54.018;9.300;2023-04-08T14:18:19;22.00;77.50
31046;DHT22;17711;54.018;9.300;2023-04-08T14:20:49;22.30;69.20
31046;DHT22;17711;54.018;9.300;2023-04-08T14:23:18;21.80;66.40
31046;DHT22;17711;54.018;9.300;2023-04-08T14:25:47;21.00;73.80
31046;DHT22;17711;54.018;9.300;2023-04-08T14:28:15;20.20;91.20
31046;DHT22;17711;54.018;9.300;2023-04-08T14:30:44;19.50;99.90
31046;DHT22;17711;54.018;9.300;2023-04-08T14:33:14;19.00;99.90
31046;DHT22;17711;54.018;9.300;2023-04-08T14:35:43;18.40;99.90
31046;DHT22;17711;54.018;9.300;2023-04-08T14:38:13;17.70;99.90
31046;DHT22;17711;54.018;9.300;2023-04-08T14:40:42;17.30;99.90
31046;DHT22;17711;54.018;9.300;2023-04-08T14:43:10;16.90;99.90
31046;DHT22;17711;54.018;9.300;2023-04-08T14:45:39;16.50;99.90
31046;DHT22;17711;54.018;9.300;2023-04-08T14:48:08;16.20;99.90
31046;DHT22;17711;54.018;9.300;2023-04-08T14:50:37;16.00;99.90
31046;DHT22;17711;54.018;9.300;2023-04-08T14:53:05;16.00;99.90
31046;DHT22;17711;54.018;9.300;2023-04-08T14:55:35;15.80;99.90
31046;DHT22;17711;54.018;9.300;2023-04-08T14:58:04;15.60;99.90
31046;DHT22;17711;54.018;9.300;2023-04-08T15:00:33;15.70;99.90
31046;DHT22;17711;54.018;9.300;2023-04-08T15:03:01;15.60;99.90
31046;DHT22;17711;54.018;9.300;2023-04-08T15:05:30;15.40;99.90
31046;DHT22;17711;54.018;9.300;2023-04-08T15:08:02;15.30;99.90
31046;DHT22;17711;54.018;9.300;2023-04-08T15:10:31;15.20;99.90
31046;DHT22;17711;54.018;9.300;2023-04-08T15:13:01;15.10;99.90
31046;DHT22;17711;54.018;9.300;2023-04-08T15:15:29;14.80;99.90
31046;DHT22;17711;54.018;9.300;2023-04-08T15:17:58;14.70;99.90
31046;DHT22;17711;54.018;9.300;2023-04-08T15:20:26;14.70;99.90
31046;DHT22;17711;54.018;9.300;2023-04-08T15:22:55;14.50;99.90
31046;DHT22;17711;54.018;9.300;2023-04-08T15:25:24;14.40;99.90
31046;DHT22;17711;54.018;9.300;2023-04-08T15:27:52;14.40;99.90
31046;DHT22;17711;54.018;9.300;2023-04-08T15:30:22;14.30;99.90
31046;DHT22;17711;54.018;9.300;2023-04-08T15:32:51;14.40;99.90
31046;DHT22;17711;54.018;9.300;2023-04-08T15:35:23;14.40;99.90
31046;DHT22;17711;54.018;9.300;2023-04-08T15:37:53;14.80;99.90
31046;DHT22;17711;54.018;9.300;2023-04-08T15:40:22;14.90;99.90
31046;DHT22;17711;54.018;9.300;2023-04-08T15:42:51;14.90;99.90
31046;DHT22;17711;54.018;9.300;2023-04-08T15:45:21;14.70;99.90
31046;DHT22;17711;54.018;9.300;2023-04-08T15:47:50;14.60;99.90
31046;DHT22;17711;54.018;9.300;2023-04-08T15:50:18;14.60;99.90
31046;DHT22;17711;54.018;9.300;2023-04-08T15:52:47;14.60;99.90